createdAt,value
2017-10-28T07:20:07.974Z,63.60
2017-10-28T07:34:23.416Z,63.10
2017-10-28T07:36:50.922Z,64.50
2017-10-28T07:39:18.442Z,65.10
2017-10-28T07:54:22.246Z,64.10
2017-10-28T07:56:49.762Z,64.60
2017-10-28T08:24:25.867Z,63.90
2017-10-28T08:26:54.151Z,61.60
2017-10-28T08:29:21.651Z,61.40
2017-10-28T08:31:49.424Z,59.00
2017-10-28T08:59:53.226Z,62.60
2017-10-28T09:02:20.757Z,63.10
2017-10-28T09:04:48.267Z,63.30
2017-10-28T09:07:15.814Z,63.40
2017-10-28T09:09:43.317Z,64.10
2017-10-28T09:12:10.979Z,63.70
2017-10-28T09:14:38.558Z,64.00
2017-10-28T09:23:14.776Z,65.50
2017-10-28T09:38:04.982Z,64.80
2017-10-28T09:51:26.766Z,64.80
2017-10-28T10:04:47.904Z,65.00
2017-10-28T10:19:57.853Z,61.50
2017-10-28T10:22:25.390Z,61.50
2017-10-28T10:24:52.916Z,61.80
2017-10-28T10:27:20.555Z,62.30
2017-10-28T10:29:48.074Z,64.70
2017-10-28T10:52:20.702Z,64.20
2017-10-28T10:54:48.218Z,64.10
2017-10-28T11:21:22.091Z,63.70
2017-10-28T11:23:49.625Z,64.20
2017-10-28T11:51:30.971Z,64.90
2017-10-28T11:58:52.856Z,65.70
2017-10-28T12:14:53.567Z,66.40
2017-10-28T12:28:59.363Z,66.50
2017-10-28T12:31:26.937Z,67.00
2017-10-28T12:33:54.499Z,67.00
2017-10-28T12:36:22.046Z,67.20
2017-10-28T12:38:49.587Z,67.30
2017-10-28T12:58:38.052Z,66.10
2017-10-28T13:01:05.597Z,66.70
2017-10-28T13:03:33.217Z,66.70
2017-10-28T13:06:00.796Z,66.60
2017-10-28T13:08:28.349Z,66.60
2017-10-28T13:10:55.896Z,66.50
2017-10-28T13:13:23.492Z,66.50
2017-10-28T13:15:51.023Z,66.50
2017-10-28T13:18:18.553Z,65.70
2017-10-28T13:20:46.120Z,66.50
2017-10-28T13:23:13.661Z,66.30
2017-10-28T13:25:41.227Z,66.30
2017-10-28T13:28:08.814Z,66.20
2017-10-28T13:30:36.359Z,66.20
2017-10-28T13:33:04.026Z,66.20
2017-10-28T13:35:31.592Z,66.20
2017-10-28T13:37:59.145Z,66.10
2017-10-28T13:40:28.200Z,65.40
2017-10-28T13:45:24.678Z,65.40
2017-10-28T13:47:52.223Z,65.40
2017-10-28T13:50:19.800Z,66.00
2017-10-28T13:52:47.339Z,66.00
2017-10-28T13:55:16.068Z,65.30
2017-10-28T13:57:43.695Z,66.60
2017-10-28T14:12:48.456Z,65.10
2017-10-28T14:15:16.024Z,65.10
2017-10-28T14:17:43.571Z,65.00
2017-10-28T14:20:11.224Z,65.10
2017-10-28T14:22:38.752Z,65.80
2017-10-28T14:25:06.723Z,65.00
2017-10-28T14:27:35.147Z,65.00
2017-10-28T14:30:02.663Z,65.10
2017-10-28T14:32:30.202Z,65.60
2017-10-28T14:37:26.756Z,65.90
2017-10-28T14:39:55.796Z,65.00
2017-10-28T14:42:23.342Z,65.60
2017-10-28T14:44:50.842Z,65.60
2017-10-28T14:47:18.421Z,65.60
2017-10-28T14:49:47.593Z,65.00
2017-10-28T14:52:15.110Z,65.50
2017-10-28T14:54:42.652Z,65.00
2017-10-28T14:57:10.964Z,65.50
2017-10-28T14:59:38.471Z,65.30
2017-10-28T15:02:06.495Z,65.30
2017-10-28T15:04:34.100Z,65.40
2017-10-28T15:07:01.654Z,65.40
2017-10-28T15:21:57.319Z,63.90
2017-10-28T15:24:24.886Z,64.40
2017-10-28T15:26:52.414Z,64.30
2017-10-28T15:29:20.100Z,63.80
2017-10-28T15:31:47.664Z,64.30
2017-10-28T15:34:15.918Z,64.30
2017-10-28T15:36:45.662Z,63.70
2017-10-28T15:39:13.199Z,64.60
2017-10-28T15:54:05.811Z,63.40
2017-10-28T15:56:33.352Z,64.20
2017-10-28T15:59:01.654Z,64.50
2017-10-28T16:01:29.227Z,64.40
2017-10-28T16:03:56.740Z,64.40
2017-10-28T16:18:44.727Z,63.60
2017-10-28T16:21:12.273Z,64.10
2017-10-28T16:23:39.821Z,64.00
2017-10-28T16:26:07.453Z,64.00
2017-10-28T16:41:15.384Z,63.30
2017-10-28T16:43:42.952Z,63.60
2017-10-28T16:58:30.020Z,61.80
2017-10-28T17:00:57.560Z,62.20
2017-10-28T17:15:33.544Z,62.40
2017-10-28T17:18:01.511Z,63.00
2017-10-28T17:33:00.726Z,61.50
2017-10-28T17:35:28.263Z,62.50
2017-10-28T17:37:55.830Z,62.70
2017-10-28T17:52:59.251Z,64.40
2017-10-28T17:55:26.850Z,64.30
2017-10-28T18:10:22.221Z,63.30
2017-10-28T18:12:50.551Z,63.80
2017-10-28T18:15:18.094Z,64.50
2017-10-28T18:17:45.679Z,63.80
2017-10-28T18:32:55.971Z,62.90
2017-10-28T18:35:24.259Z,63.30
2017-10-28T18:37:51.778Z,63.20
2017-10-28T18:40:19.355Z,63.30
2017-10-28T18:42:47.690Z,63.40
2017-10-28T18:45:15.246Z,63.40
2017-10-28T18:47:42.803Z,63.50
2017-10-28T19:02:36.934Z,63.00
2017-10-28T19:05:04.471Z,63.70
2017-10-28T19:07:33.135Z,63.10
2017-10-28T19:10:00.710Z,63.70
2017-10-28T19:26:14.187Z,63.50
2017-10-28T19:28:41.742Z,64.10
2017-10-28T19:31:09.296Z,63.60
2017-10-28T19:33:37.072Z,63.60
2017-10-28T19:36:04.659Z,65.00
2017-10-28T19:38:32.210Z,64.60
2017-10-28T19:41:00.423Z,64.40
2017-10-28T19:43:29.121Z,65.00
2017-10-28T19:45:57.432Z,64.70
2017-10-28T19:48:25.918Z,64.70
2017-10-28T19:50:54.306Z,64.90
2017-10-28T19:53:21.859Z,64.80
2017-10-28T19:55:49.556Z,64.80
2017-10-28T19:58:17.097Z,64.40
2017-10-28T20:00:44.848Z,65.00
2017-10-28T20:03:12.913Z,65.00
2017-10-28T20:05:40.446Z,65.00
2017-10-28T20:08:07.990Z,65.10
2017-10-28T20:10:36.699Z,64.60
2017-10-28T20:13:04.269Z,65.20
2017-10-28T20:15:31.812Z,65.20
2017-10-28T20:17:59.468Z,65.20
2017-10-28T20:20:28.511Z,64.70
2017-10-28T20:22:56.056Z,65.30
2017-10-28T20:25:23.906Z,65.30
2017-10-28T20:27:51.442Z,65.30
2017-10-28T20:30:19.863Z,65.30
2017-10-28T20:32:47.443Z,65.20
2017-10-28T20:35:14.974Z,65.30
2017-10-28T20:37:42.510Z,65.30
2017-10-28T20:40:10.839Z,65.30
2017-10-28T20:42:38.400Z,65.20
2017-10-28T20:45:05.942Z,65.30
2017-10-28T20:47:33.911Z,65.40
2017-10-28T20:50:01.471Z,65.30
2017-10-28T20:52:29.011Z,65.40
2017-10-28T20:54:57.790Z,64.70
2017-10-28T20:57:25.336Z,65.40
2017-10-28T20:59:53.631Z,65.40
2017-10-28T21:02:21.199Z,65.20
2017-10-28T21:04:48.829Z,65.40
2017-10-28T21:07:17.147Z,65.40
2017-10-28T21:09:44.756Z,65.30
2017-10-28T21:12:13.050Z,65.40
2017-10-28T21:14:41.717Z,64.80
2017-10-28T21:17:09.267Z,65.50
2017-10-28T21:19:36.803Z,65.50
2017-10-28T21:22:04.343Z,65.50
2017-10-28T21:24:31.874Z,65.50
2017-10-28T21:27:00.167Z,65.50
2017-10-28T21:29:27.703Z,65.40
2017-10-28T21:31:55.281Z,65.50
2017-10-28T21:34:24.407Z,64.80
2017-10-28T21:36:51.952Z,65.50
2017-10-28T21:39:19.524Z,65.50
2017-10-28T21:41:47.058Z,65.50
2017-10-28T21:44:14.599Z,65.50
2017-10-28T21:46:42.150Z,65.50
2017-10-28T21:49:09.679Z,65.50
2017-10-28T21:51:37.240Z,65.00
2017-10-28T21:54:04.808Z,65.50
2017-10-28T21:56:32.358Z,65.50
2017-10-28T21:58:59.910Z,65.50
2017-10-28T22:01:27.480Z,65.50
2017-10-28T22:06:28.411Z,65.50
2017-10-28T22:08:55.928Z,65.50
2017-10-28T22:11:23.463Z,65.50
2017-10-28T22:13:51.215Z,65.50
2017-10-28T22:16:18.750Z,64.90
2017-10-28T22:18:46.255Z,65.50
2017-10-28T22:21:13.997Z,65.50
2017-10-28T22:23:41.584Z,65.50
2017-10-28T22:26:09.110Z,65.00
2017-10-28T22:28:36.784Z,65.50
2017-10-28T22:31:04.294Z,65.50
2017-10-28T22:33:32.707Z,65.50
2017-10-28T22:36:00.484Z,66.20
2017-10-28T22:38:28.026Z,65.50
2017-10-28T22:40:55.582Z,65.50
2017-10-28T22:43:23.277Z,65.50
2017-10-28T22:45:50.822Z,65.50
2017-10-28T22:48:18.475Z,65.50
2017-10-28T22:50:46.060Z,65.50
2017-10-28T22:53:13.618Z,65.50
2017-10-28T22:55:41.190Z,65.50
2017-10-28T22:58:08.759Z,65.50
2017-10-28T23:00:36.309Z,65.50
2017-10-28T23:03:04.210Z,65.50
2017-10-28T23:05:32.553Z,65.50
2017-10-28T23:08:09.084Z,65.60
2017-10-28T23:10:37.839Z,65.50
2017-10-28T23:13:06.136Z,65.50
2017-10-28T23:15:34.422Z,65.60
2017-10-28T23:18:01.951Z,65.50
2017-10-28T23:20:29.482Z,65.60
2017-10-28T23:22:57.019Z,65.60
2017-10-28T23:25:24.626Z,65.60
2017-10-28T23:27:52.163Z,65.60
2017-10-28T23:30:19.695Z,65.60
2017-10-28T23:32:47.267Z,65.50
2017-10-28T23:35:14.808Z,65.50
2017-10-28T23:37:42.311Z,65.90
2017-10-28T23:40:09.850Z,65.50
2017-10-28T23:42:37.395Z,65.50
2017-10-28T23:45:04.909Z,65.50
2017-10-28T23:47:33.207Z,65.50
2017-10-28T23:50:00.711Z,65.50
2017-10-28T23:52:28.222Z,65.50
2017-10-28T23:54:55.766Z,65.50
2017-10-28T23:57:24.086Z,65.60
2017-10-28T23:59:51.626Z,65.50
